createdAt,value
2022-09-09T00:01:33.003Z,8.13
2022-09-09T00:04:18.568Z,8.73
2022-09-09T00:06:56.195Z,9.37
2022-09-09T00:09:28.684Z,9.73
2022-09-09T00:12:16.540Z,13.40
2022-09-09T00:14:56.568Z,10.07
2022-09-09T00:17:40.516Z,9.97
2022-09-09T00:20:20.731Z,13.63
2022-09-09T00:23:25.843Z,9.97
2022-09-09T00:26:23.071Z,14.43
2022-09-09T00:28:55.891Z,15.47
2022-09-09T00:31:31.711Z,13.70
2022-09-09T00:34:13.804Z,13.03
2022-09-09T00:36:42.408Z,7.40
2022-09-09T00:39:46.390Z,10.20
2022-09-09T00:42:43.877Z,9.87
2022-09-09T00:45:16.984Z,15.77
2022-09-09T00:48:11.252Z,8.50
2022-09-09T00:50:50.544Z,8.50
2022-09-09T00:53:23.976Z,10.27
2022-09-09T00:56:02.740Z,13.40
2022-09-09T00:58:29.923Z,8.27
2022-09-09T01:01:07.693Z,11.97
2022-09-09T01:03:56.837Z,9.73
2022-09-09T01:06:34.276Z,9.80
2022-09-09T01:09:24.787Z,10.03
2022-09-09T01:12:15.178Z,15.83
2022-09-09T01:14:49.610Z,10.23
2022-09-09T01:17:23.972Z,13.67
2022-09-09T01:20:11.689Z,11.50
2022-09-09T01:22:47.843Z,12.37
2022-09-09T01:25:45.165Z,16.00
2022-09-09T01:28:18.033Z,24.83
2022-09-09T01:30:45.032Z,15.80
2022-09-09T01:33:19.301Z,17.27
2022-09-09T01:35:57.879Z,10.97
2022-09-09T01:38:26.324Z,12.40
2022-09-09T01:40:54.102Z,14.30
2022-09-09T01:43:22.603Z,15.80
2022-09-09T01:45:53.214Z,8.97
2022-09-09T01:48:21.334Z,15.33
2022-09-09T01:50:48.094Z,9.20
2022-09-09T01:53:17.013Z,10.00
2022-09-09T01:55:52.288Z,18.77
2022-09-09T01:58:38.017Z,12.63
2022-09-09T02:01:32.986Z,11.53
2022-09-09T02:04:04.268Z,22.03
2022-09-09T02:06:40.731Z,18.60
2022-09-09T02:09:11.459Z,13.80
2022-09-09T02:11:38.794Z,13.83
2022-09-09T02:14:17.584Z,19.37
2022-09-09T02:16:58.291Z,14.40
2022-09-09T02:19:33.640Z,13.63
2022-09-09T02:22:02.334Z,10.40
2022-09-09T02:24:32.648Z,12.37
2022-09-09T02:27:01.907Z,12.23
2022-09-09T02:29:46.459Z,11.23
2022-09-09T02:32:21.148Z,15.17
2022-09-09T02:35:00.794Z,12.90
2022-09-09T02:37:34.667Z,12.47
2022-09-09T02:40:02.820Z,14.43
2022-09-09T02:42:29.895Z,11.20
2022-09-09T02:44:56.874Z,13.83
2022-09-09T02:47:31.482Z,14.27
2022-09-09T02:50:14.494Z,13.03
2022-09-09T02:52:47.254Z,8.97
2022-09-09T02:55:43.320Z,13.10
2022-09-09T02:58:13.724Z,11.60
2022-09-09T03:00:41.328Z,9.87
2022-09-09T03:03:10.233Z,11.53
2022-09-09T03:05:37.222Z,7.70
2022-09-09T03:08:06.548Z,14.13
2022-09-09T03:10:34.224Z,11.00
2022-09-09T03:13:01.215Z,9.13
2022-09-09T03:15:31.211Z,15.00
2022-09-09T03:17:59.016Z,11.20
2022-09-09T03:20:27.319Z,13.97
2022-09-09T03:22:55.037Z,9.03
2022-09-09T03:25:24.944Z,11.03
2022-09-09T03:27:55.252Z,11.20
2022-09-09T03:30:26.732Z,9.60
2022-09-09T03:32:53.911Z,11.43
2022-09-09T03:35:20.712Z,8.97
2022-09-09T03:37:47.499Z,13.50
2022-09-09T03:40:14.950Z,10.40
2022-09-09T03:42:41.817Z,11.53
2022-09-09T03:45:11.516Z,9.30
2022-09-09T03:47:38.791Z,15.13
2022-09-09T03:50:09.573Z,9.73
2022-09-09T03:52:37.778Z,8.60
2022-09-09T03:55:05.729Z,9.23
2022-09-09T03:57:35.886Z,9.47
2022-09-09T04:00:12.146Z,10.20
2022-09-09T04:02:40.291Z,10.93
2022-09-09T04:05:07.975Z,10.90
2022-09-09T04:07:34.754Z,8.10
2022-09-09T04:10:01.888Z,9.13
2022-09-09T04:12:28.687Z,8.90
2022-09-09T04:14:55.440Z,11.83
2022-09-09T04:17:22.251Z,8.73
2022-09-09T04:19:49.212Z,9.13
2022-09-09T04:22:16.744Z,10.27
2022-09-09T04:24:48.077Z,6.10
2022-09-09T04:27:15.635Z,9.80
2022-09-09T04:29:42.443Z,9.27
2022-09-09T04:32:09.196Z,7.67
2022-09-09T04:34:35.997Z,7.63
2022-09-09T04:37:02.812Z,9.60
2022-09-09T04:39:29.909Z,6.40
2022-09-09T04:41:57.500Z,6.30
2022-09-09T04:44:24.285Z,8.90
2022-09-09T04:46:51.138Z,7.63
2022-09-09T04:49:18.753Z,8.50
2022-09-09T04:51:45.601Z,10.70
2022-09-09T04:54:12.765Z,12.20
2022-09-09T04:56:39.565Z,5.37
2022-09-09T04:59:06.631Z,8.03
2022-09-09T05:01:33.518Z,7.33
2022-09-09T05:04:00.371Z,8.80
2022-09-09T05:06:27.230Z,5.70
2022-09-09T05:08:53.990Z,7.07
2022-09-09T05:11:23.748Z,6.30
2022-09-09T05:13:51.379Z,8.93
2022-09-09T05:16:19.146Z,9.13
2022-09-09T05:18:47.126Z,8.47
2022-09-09T05:21:15.489Z,17.00
2022-09-09T05:23:42.278Z,8.23
2022-09-09T05:26:17.022Z,5.73
2022-09-09T05:28:44.658Z,10.70
2022-09-09T05:31:14.929Z,6.43
2022-09-09T05:33:44.084Z,4.60
2022-09-09T05:36:16.102Z,5.47
2022-09-09T05:38:43.539Z,8.17
2022-09-09T05:41:16.647Z,6.80
2022-09-09T05:43:50.620Z,9.00
2022-09-09T05:46:20.685Z,7.37
2022-09-09T05:48:49.051Z,7.57
2022-09-09T05:51:22.486Z,7.63
2022-09-09T05:53:50.018Z,13.67
2022-09-09T05:56:22.990Z,6.27
2022-09-09T05:58:50.816Z,6.93
2022-09-09T06:01:20.063Z,6.80
2022-09-09T06:03:49.098Z,4.63
2022-09-09T06:06:18.663Z,10.20
2022-09-09T06:08:46.347Z,6.47
2022-09-09T06:11:19.882Z,6.30
2022-09-09T06:13:46.895Z,7.17
2022-09-09T06:16:15.847Z,12.00
2022-09-09T06:18:43.487Z,4.87
2022-09-09T06:21:17.181Z,6.13
2022-09-09T06:23:48.155Z,6.00
2022-09-09T06:26:18.360Z,6.43
2022-09-09T06:28:46.713Z,7.33
2022-09-09T06:31:15.566Z,5.30
2022-09-09T06:33:43.171Z,8.90
2022-09-09T06:36:19.619Z,7.80
2022-09-09T06:38:47.067Z,5.40
2022-09-09T06:41:15.784Z,6.20
2022-09-09T06:43:42.866Z,6.60
2022-09-09T06:46:18.142Z,11.43
2022-09-09T06:48:45.872Z,6.23
2022-09-09T06:51:17.479Z,8.83
2022-09-09T06:53:45.771Z,8.03
2022-09-09T06:56:17.359Z,12.03
2022-09-09T06:58:45.111Z,49.67
2022-09-09T07:01:17.728Z,8.37
2022-09-09T07:03:49.144Z,9.33
2022-09-09T07:06:18.731Z,7.87
2022-09-09T07:08:56.302Z,12.00
2022-09-09T07:11:27.882Z,7.37
2022-09-09T07:13:55.325Z,7.63
2022-09-09T07:16:26.296Z,8.93
2022-09-09T07:18:56.475Z,8.87
2022-09-09T07:21:23.309Z,9.27
2022-09-09T07:23:50.120Z,8.50
2022-09-09T07:26:22.942Z,9.23
2022-09-09T07:28:50.212Z,7.70
2022-09-09T07:31:19.673Z,8.10
2022-09-09T07:33:47.719Z,11.20
2022-09-09T07:36:23.063Z,10.93
2022-09-09T07:38:56.741Z,8.03
2022-09-09T07:41:29.791Z,6.90
2022-09-09T07:43:56.922Z,10.83
2022-09-09T07:46:26.450Z,13.00
2022-09-09T07:48:55.887Z,10.90
2022-09-09T07:51:29.030Z,10.13
2022-09-09T07:54:02.915Z,9.60
2022-09-09T07:56:30.661Z,8.47
2022-09-09T07:58:59.759Z,10.53
2022-09-09T08:01:28.078Z,13.43
2022-09-09T08:04:02.306Z,9.17
2022-09-09T08:06:32.329Z,10.13
2022-09-09T08:08:59.489Z,10.20
2022-09-09T08:11:28.632Z,10.23
2022-09-09T08:14:00.250Z,10.20
2022-09-09T08:16:34.949Z,8.90
2022-09-09T08:19:01.763Z,9.13
2022-09-09T08:21:30.678Z,14.60
2022-09-09T08:23:59.226Z,13.63
2022-09-09T08:26:32.602Z,11.00
2022-09-09T08:29:00.983Z,13.60
2022-09-09T08:31:36.584Z,10.90
2022-09-09T08:34:04.562Z,12.60
2022-09-09T08:36:35.288Z,11.30
2022-09-09T08:39:02.511Z,13.73
2022-09-09T08:42:10.250Z,10.20
2022-09-09T08:44:46.851Z,13.27
2022-09-09T08:47:43.635Z,12.90
2022-09-09T08:50:25.805Z,14.27
2022-09-09T08:53:25.966Z,14.63
2022-09-09T08:56:04.542Z,12.90
2022-09-09T08:58:34.603Z,13.90
2022-09-09T09:01:10.391Z,13.20
2022-09-09T09:03:57.420Z,18.73
2022-09-09T09:06:37.385Z,22.87
2022-09-09T09:09:11.521Z,15.43
2022-09-09T09:11:49.864Z,18.13
2022-09-09T09:14:25.477Z,17.03
2022-09-09T09:16:57.946Z,21.80
2022-09-09T09:19:27.266Z,18.40
2022-09-09T09:21:57.128Z,14.03
2022-09-09T09:24:47.398Z,19.90
2022-09-09T09:27:27.102Z,16.40
2022-09-09T09:30:21.593Z,17.57
2022-09-09T09:32:51.684Z,24.90
2022-09-09T09:35:18.458Z,18.47
2022-09-09T09:40:32.798Z,20.07
2022-09-09T09:43:01.594Z,18.73
2022-09-09T09:45:33.406Z,20.47
2022-09-09T09:48:13.975Z,23.50
2022-09-09T09:50:59.570Z,22.33
2022-09-09T09:53:32.705Z,21.37
2022-09-09T09:56:02.485Z,21.03
2022-09-09T09:58:35.107Z,23.00
2022-09-09T10:01:02.563Z,21.30
2022-09-09T10:03:38.587Z,23.40
2022-09-09T10:06:06.014Z,24.67
2022-09-09T10:08:46.414Z,33.77
2022-09-09T10:11:15.081Z,24.93
2022-09-09T10:13:47.448Z,23.80
2022-09-09T10:16:31.111Z,20.87
2022-09-09T10:19:22.065Z,26.13
2022-09-09T10:22:03.323Z,21.63
2022-09-09T10:25:09.317Z,25.03
2022-09-09T10:27:48.385Z,31.00
2022-09-09T10:30:15.208Z,27.43
2022-09-09T10:32:58.132Z,31.10
2022-09-09T10:35:34.369Z,24.80
2022-09-09T10:38:20.983Z,20.50
2022-09-09T10:40:57.528Z,27.07
2022-09-09T10:44:06.205Z,26.77
2022-09-09T10:46:50.446Z,20.80
2022-09-09T10:49:47.400Z,25.97
2022-09-09T10:52:34.268Z,26.10
2022-09-09T10:55:11.333Z,27.73
2022-09-09T10:57:41.134Z,24.27
2022-09-09T11:00:20.774Z,30.77
2022-09-09T11:03:10.533Z,35.83
2022-09-09T11:06:10.206Z,29.40
2022-09-09T11:08:40.239Z,28.37
2022-09-09T11:11:31.117Z,29.43
2022-09-09T11:14:06.014Z,27.80
2022-09-09T11:16:53.362Z,35.13
2022-09-09T11:19:35.270Z,35.53
2022-09-09T11:22:39.894Z,42.93
2022-09-09T11:25:18.279Z,28.50
2022-09-09T11:27:57.643Z,33.17
2022-09-09T11:30:56.218Z,30.97
2022-09-09T11:33:35.801Z,36.97
2022-09-09T11:36:13.573Z,34.57
2022-09-09T11:38:54.217Z,40.23
2022-09-09T11:41:22.667Z,34.43
2022-09-09T11:43:49.632Z,47.60
2022-09-09T11:46:18.516Z,32.07
2022-09-09T11:48:58.063Z,39.63
2022-09-09T11:51:24.909Z,38.90
2022-09-09T11:53:58.336Z,44.77
2022-09-09T11:56:43.390Z,34.40
2022-09-09T11:59:29.184Z,33.57
2022-09-09T12:02:11.096Z,37.70
2022-09-09T12:04:45.807Z,42.70
2022-09-09T12:07:12.648Z,39.03
2022-09-09T12:09:45.919Z,39.87
2022-09-09T12:12:12.689Z,41.33
2022-09-09T12:15:02.817Z,39.90
2022-09-09T12:17:32.743Z,40.00
2022-09-09T12:20:24.665Z,45.50
2022-09-09T12:22:57.895Z,42.37
2022-09-09T12:25:25.118Z,41.20
2022-09-09T12:28:11.643Z,39.63
2022-09-09T12:31:02.605Z,38.97
2022-09-09T12:33:37.044Z,40.50
2022-09-09T12:36:07.325Z,38.17
2022-09-09T12:38:40.278Z,43.23
2022-09-09T12:41:07.452Z,41.23
2022-09-09T12:43:34.721Z,43.83
2022-09-09T12:46:05.363Z,42.60
2022-09-09T12:48:39.858Z,44.10
2022-09-09T12:51:19.095Z,39.43
2022-09-09T12:53:47.242Z,39.07
2022-09-09T12:56:22.402Z,48.73
2022-09-09T12:58:52.740Z,48.10
2022-09-09T13:01:26.697Z,39.17
2022-09-09T13:03:54.539Z,42.60
2022-09-09T13:06:28.601Z,49.67
2022-09-09T13:09:00.784Z,49.20
2022-09-09T13:11:30.830Z,56.53
2022-09-09T13:13:59.021Z,40.63
2022-09-09T13:16:42.562Z,40.13
2022-09-09T13:19:15.298Z,46.17
2022-09-09T13:21:43.639Z,46.57
2022-09-09T13:24:35.744Z,47.37
2022-09-09T13:27:29.668Z,41.00
2022-09-09T13:29:57.734Z,42.30
2022-09-09T13:32:27.855Z,37.43
2022-09-09T13:35:05.041Z,51.20
2022-09-09T13:37:40.107Z,40.73
2022-09-09T13:40:08.312Z,37.13
2022-09-09T13:42:39.805Z,34.13
2022-09-09T13:45:07.237Z,40.87
2022-09-09T13:47:36.507Z,34.90
2022-09-09T13:50:22.250Z,41.03
2022-09-09T13:52:52.162Z,40.07
2022-09-09T13:55:22.700Z,24.67
2022-09-09T13:58:01.728Z,34.30
2022-09-09T14:00:32.348Z,38.97
2022-09-09T14:03:02.596Z,36.20
2022-09-09T14:05:32.843Z,38.93
2022-09-09T14:08:01.680Z,40.20
2022-09-09T14:10:28.679Z,46.37
2022-09-09T14:12:55.613Z,48.80
2022-09-09T14:15:22.981Z,38.03
2022-09-09T14:17:49.976Z,37.93
2022-09-09T14:20:18.741Z,36.03
2022-09-09T14:22:45.722Z,35.83
2022-09-09T14:25:14.619Z,45.13
2022-09-09T14:27:41.710Z,39.63
2022-09-09T14:30:09.486Z,38.70
2022-09-09T14:32:36.357Z,48.67
2022-09-09T14:35:03.527Z,37.67
2022-09-09T14:37:32.168Z,36.17
2022-09-09T14:39:59.471Z,38.10
2022-09-09T14:42:27.792Z,36.57
2022-09-09T14:44:54.607Z,44.53
2022-09-09T14:47:21.477Z,46.90
2022-09-09T14:49:50.862Z,41.80
2022-09-09T14:52:17.818Z,41.30
2022-09-09T14:54:44.909Z,45.67
2022-09-09T14:57:11.772Z,42.80
2022-09-09T14:59:38.629Z,44.47
2022-09-09T15:02:06.239Z,43.13
2022-09-09T15:04:33.356Z,38.90
2022-09-09T15:07:00.425Z,31.87
2022-09-09T15:09:27.462Z,34.60
2022-09-09T15:11:54.406Z,36.13
2022-09-09T15:14:22.614Z,34.97
2022-09-09T15:16:52.765Z,44.00
2022-09-09T15:19:19.581Z,42.63
2022-09-09T15:21:46.496Z,46.00
2022-09-09T15:24:14.686Z,34.57
2022-09-09T15:26:41.814Z,38.77
2022-09-09T15:29:09.321Z,41.13
2022-09-09T15:31:36.401Z,34.83
2022-09-09T15:34:05.441Z,31.40
2022-09-09T15:36:44.819Z,29.23
2022-09-09T15:39:14.136Z,31.97
2022-09-09T15:41:41.242Z,41.63
2022-09-09T15:44:08.012Z,43.17
2022-09-09T15:46:40.062Z,40.50
2022-09-09T15:49:06.821Z,41.10
2022-09-09T15:51:49.231Z,43.53
2022-09-09T15:54:19.464Z,47.13
2022-09-09T15:56:49.812Z,34.13
2022-09-09T15:59:17.069Z,41.80
2022-09-09T16:01:45.265Z,39.00
2022-09-09T16:04:13.046Z,40.30
2022-09-09T16:06:40.234Z,38.90
2022-09-09T16:09:08.479Z,37.03
2022-09-09T16:11:38.792Z,30.87
2022-09-09T16:14:07.642Z,38.23
2022-09-09T16:16:36.139Z,31.50
2022-09-09T16:19:13.995Z,35.40
2022-09-09T16:21:46.387Z,35.47
2022-09-09T16:24:16.100Z,30.63
2022-09-09T16:26:46.806Z,26.97
2022-09-09T16:29:15.389Z,35.60
2022-09-09T16:31:42.710Z,35.47
2022-09-09T16:34:10.046Z,32.53
2022-09-09T16:36:40.017Z,34.07
2022-09-09T16:39:10.509Z,36.93
2022-09-09T16:41:38.186Z,32.43
2022-09-09T16:44:07.384Z,31.07
2022-09-09T16:46:40.033Z,32.90
2022-09-09T16:49:09.276Z,37.13
2022-09-09T16:51:48.260Z,33.23
2022-09-09T16:54:17.148Z,34.17
2022-09-09T16:56:46.097Z,39.10
2022-09-09T16:59:15.342Z,37.03
2022-09-09T17:01:44.462Z,28.03
2022-09-09T17:04:21.241Z,30.00
2022-09-09T17:06:53.218Z,31.90
2022-09-09T17:09:21.082Z,32.53
2022-09-09T17:11:48.918Z,33.90
2022-09-09T17:14:18.976Z,36.10
2022-09-09T17:16:45.992Z,40.77
2022-09-09T17:19:13.667Z,30.23
2022-09-09T17:21:59.968Z,33.93
2022-09-09T17:24:30.129Z,31.83
2022-09-09T17:26:58.318Z,35.20
2022-09-09T17:29:25.981Z,30.43
2022-09-09T17:31:52.969Z,31.10
2022-09-09T17:34:19.756Z,38.93
2022-09-09T17:36:46.714Z,32.77
2022-09-09T17:39:13.510Z,36.30
2022-09-09T17:41:40.843Z,38.60
2022-09-09T17:46:37.602Z,36.40
2022-09-09T17:49:07.399Z,39.03
2022-09-09T17:51:35.079Z,38.50
2022-09-09T17:54:05.295Z,31.67
2022-09-09T17:56:33.367Z,44.17
2022-09-09T17:59:01.883Z,36.00
2022-09-09T18:01:32.124Z,38.40
2022-09-09T18:04:04.198Z,34.40
2022-09-09T18:06:35.610Z,36.83
2022-09-09T18:09:06.310Z,40.57
2022-09-09T18:11:36.538Z,32.53
2022-09-09T18:14:04.815Z,31.93
2022-09-09T18:16:36.576Z,33.50
2022-09-09T18:19:05.548Z,37.73
2022-09-09T18:21:33.719Z,41.63
2022-09-09T18:24:02.681Z,42.43
2022-09-09T18:26:29.960Z,47.90
2022-09-09T18:28:59.401Z,35.90
2022-09-09T18:31:29.018Z,36.27
2022-09-09T18:33:58.796Z,32.53
2022-09-09T18:36:28.539Z,28.40
2022-09-09T18:38:59.373Z,29.40
2022-09-09T18:41:35.208Z,29.30
2022-09-09T18:44:05.502Z,27.23
2022-09-09T18:46:34.930Z,33.63
2022-09-09T18:49:02.605Z,29.57
2022-09-09T18:51:30.233Z,27.73
2022-09-09T18:54:03.670Z,27.97
2022-09-09T18:56:31.080Z,32.97
2022-09-09T18:59:00.737Z,28.03
2022-09-09T19:01:29.403Z,27.80
2022-09-09T19:03:57.160Z,24.80
2022-09-09T19:06:27.078Z,29.20
2022-09-09T19:08:56.868Z,22.33
2022-09-09T19:11:26.401Z,25.30
2022-09-09T19:14:01.789Z,21.80
2022-09-09T19:16:31.615Z,25.93
2022-09-09T19:19:01.179Z,25.77
2022-09-09T19:21:30.602Z,21.83
2022-09-09T19:24:07.280Z,21.33
2022-09-09T19:26:40.845Z,24.17
2022-09-09T19:29:10.141Z,20.00
2022-09-09T19:31:38.084Z,26.57
2022-09-09T19:34:05.367Z,23.67
2022-09-09T19:36:32.829Z,25.90
2022-09-09T19:39:00.427Z,21.63
2022-09-09T19:41:28.392Z,24.97
2022-09-09T19:44:01.970Z,21.70
2022-09-09T19:46:30.441Z,23.33
2022-09-09T19:48:58.345Z,25.10
2022-09-09T19:51:26.665Z,19.90
2022-09-09T19:53:56.435Z,20.63
2022-09-09T19:56:25.489Z,22.07
2022-09-09T19:58:53.411Z,20.20
2022-09-09T20:01:42.011Z,22.00
2022-09-09T20:04:09.306Z,18.30
2022-09-09T20:06:40.885Z,21.03
2022-09-09T20:09:10.943Z,17.70
2022-09-09T20:11:39.222Z,20.37
2022-09-09T20:14:06.386Z,23.60
2022-09-09T20:16:33.699Z,20.87
2022-09-09T20:19:02.795Z,17.07
2022-09-09T20:21:32.451Z,18.07
2022-09-09T20:24:05.983Z,18.60
2022-09-09T20:26:37.573Z,19.40
2022-09-09T20:29:07.720Z,17.40
2022-09-09T20:31:37.120Z,17.73
2022-09-09T20:34:06.175Z,16.90
2022-09-09T20:36:35.468Z,18.37
2022-09-09T20:39:10.822Z,17.63
2022-09-09T20:41:38.938Z,17.60
2022-09-09T20:44:14.228Z,19.43
2022-09-09T20:46:43.838Z,20.33
2022-09-09T20:49:11.787Z,21.97
2022-09-09T20:51:39.118Z,20.93
2022-09-09T20:54:12.105Z,17.23
2022-09-09T20:56:42.321Z,18.93
2022-09-09T20:59:14.975Z,14.83
2022-09-09T21:01:42.199Z,14.63
2022-09-09T21:04:09.772Z,12.43
2022-09-09T21:06:37.211Z,19.00
2022-09-09T21:09:04.983Z,14.00
2022-09-09T21:11:31.867Z,16.23
2022-09-09T21:13:59.637Z,15.43
2022-09-09T21:16:27.860Z,20.93
2022-09-09T21:18:55.107Z,11.90
2022-09-09T21:21:21.912Z,13.67
2022-09-09T21:23:49.687Z,16.20
2022-09-09T21:26:19.524Z,14.33
2022-09-09T21:28:46.458Z,17.30
2022-09-09T21:31:15.455Z,15.83
2022-09-09T21:33:43.078Z,12.87
2022-09-09T21:36:14.302Z,21.30
2022-09-09T21:38:42.214Z,20.97
2022-09-09T21:41:14.134Z,15.83
2022-09-09T21:43:42.409Z,13.23
2022-09-09T21:46:11.773Z,15.27
2022-09-09T21:48:38.707Z,17.10
2022-09-09T21:51:08.270Z,14.07
2022-09-09T21:53:35.478Z,16.63
2022-09-09T21:56:06.205Z,15.90
2022-09-09T21:58:34.458Z,13.57
2022-09-09T22:01:01.474Z,16.03
2022-09-09T22:03:28.679Z,16.53
2022-09-09T22:05:55.561Z,15.83
2022-09-09T22:08:22.351Z,18.20
2022-09-09T22:10:49.165Z,14.93
2022-09-09T22:13:17.171Z,14.93
2022-09-09T22:15:45.925Z,16.23
2022-09-09T22:18:15.947Z,12.87
2022-09-09T22:20:45.066Z,18.63
2022-09-09T22:23:12.967Z,11.90
2022-09-09T22:25:40.464Z,16.90
2022-09-09T22:28:09.298Z,14.80
2022-09-09T22:30:36.240Z,13.73
2022-09-09T22:33:03.074Z,15.20
2022-09-09T22:35:29.884Z,13.30
2022-09-09T22:37:57.841Z,15.43
2022-09-09T22:40:24.662Z,13.50
2022-09-09T22:42:53.047Z,16.27
2022-09-09T22:45:21.673Z,12.57
2022-09-09T22:47:48.619Z,10.23
2022-09-09T22:50:15.475Z,7.97
2022-09-09T22:52:42.378Z,13.33
2022-09-09T22:55:09.502Z,9.73
2022-09-09T22:57:37.340Z,11.73
2022-09-09T23:00:09.012Z,8.60
2022-09-09T23:02:40.836Z,8.53
2022-09-09T23:05:11.501Z,9.33
2022-09-09T23:07:38.542Z,10.10
2022-09-09T23:10:06.787Z,9.43
2022-09-09T23:12:34.296Z,14.17
2022-09-09T23:15:01.202Z,11.67
2022-09-09T23:17:28.069Z,10.57
2022-09-09T23:19:56.417Z,12.13
2022-09-09T23:22:24.484Z,11.30
2022-09-09T23:24:52.801Z,15.40
2022-09-09T23:27:21.429Z,13.70
2022-09-09T23:29:49.650Z,9.80
2022-09-09T23:32:17.847Z,13.30
2022-09-09T23:34:47.356Z,11.80
2022-09-09T23:37:14.238Z,10.40
2022-09-09T23:39:41.144Z,8.80
2022-09-09T23:42:09.626Z,9.37
2022-09-09T23:44:38.347Z,11.93
2022-09-09T23:47:06.801Z,10.97
2022-09-09T23:49:34.887Z,7.87
2022-09-09T23:52:05.331Z,8.00
2022-09-09T23:54:34.170Z,8.27
2022-09-09T23:57:02.962Z,9.40
2022-09-09T23:59:31.037Z,8.47
